Hlavní strana
METAR-TAF:

METAR-TAF

Letiště :

Letiště Peking

Peking, Čína

zeměpisná šířka: 39-56N, zeměpisná délka: 116-17E, výška: 55 m

Aktuální stav počasí

Zpráva byla vytvořena před 31 minutami, v 00:00 UTC
Severní vítr 6 kt
Teplota 13°C
Vlhkost vzduchu 82%
Tlak 1022 hPa
Viditelnost: 3500 m
kouřmo

METAR: ZBAA 160000Z 36003MPS 3500 BR NSC 13/10 Q1022 NOSIG

Čas: 08:31 (00:31 UTC)

Předpověď počasí

Zpráva byla vytvořena před 3 hodinami a 11 minutami, v 21:20 UTC
Předpověď platná od 16 v 00 UTC do 16 v 24 UTC
Severní vítr 8 kt
Viditelnost: 2700 m
kouřmo
Změna
od 16 v 00 UTC do 16 v 01 UTC
Viditelnost: 3500 m

TAF: ZBAA 152120Z 1600/1624 01004MPS 2700 BR NSC TX17/1607Z TN05/1621Z BECMG 1600/1601 3500

Stav a předpovědi počasí z více než 4 000 letišť (zprávy METAR a TAF).

Červené a žluté tečky na mapě představují dostupné meteorologické stanice.

Když kurzor umístíte na tečku, zobrazí se název stanice.

Pak kliknutím zobrazíte stav a předpověď počasí.

Chcete-li změnit mapu, kliknutím na zelené tlačítko se znaménkem +mapu přiblížíte, kliknutím na zelené tlačítko se znaménkem – mapu oddálíte a kliknutím na zelené šipky přejdete na sousední mapy.


METAR-TAF: